createdAt,value
2018-12-10T00:00:19.879Z,4.90
2018-12-10T00:02:49.898Z,4.90
2018-12-10T00:05:17.691Z,4.80
2018-12-10T00:07:45.531Z,4.60
2018-12-10T00:10:13.419Z,4.60
2018-12-10T00:12:41.016Z,4.40
2018-12-10T00:15:08.829Z,4.30
2018-12-10T00:17:36.700Z,4.30
2018-12-10T00:20:04.564Z,4.30
2018-12-10T00:22:32.247Z,4.30
2018-12-10T00:25:00.100Z,4.30
2018-12-10T00:27:27.964Z,4.30
2018-12-10T00:29:55.833Z,4.20
2018-12-10T00:32:23.701Z,4.20
2018-12-10T00:34:51.483Z,4.20
2018-12-10T00:37:19.155Z,4.10
2018-12-10T00:39:46.762Z,4.10
2018-12-10T00:45:08.151Z,4.10
2018-12-10T00:47:35.999Z,4.10
2018-12-10T00:53:03.435Z,4.10
2018-12-10T00:55:31.279Z,4.20
2018-12-10T00:57:59.752Z,4.30
2018-12-10T01:00:27.493Z,4.30
2018-12-10T01:02:55.260Z,4.20
2018-12-10T01:05:23.750Z,4.20
2018-12-10T01:07:51.615Z,4.20
2018-12-10T01:10:19.480Z,4.00
2018-12-10T01:12:48.331Z,4.20
2018-12-10T01:15:16.238Z,4.20
2018-12-10T01:17:44.005Z,4.20
2018-12-10T01:20:11.690Z,4.20
2018-12-10T01:22:39.466Z,4.20
2018-12-10T01:25:07.305Z,4.20
2018-12-10T01:27:34.912Z,4.10
2018-12-10T01:30:02.669Z,4.10
2018-12-10T01:32:30.426Z,4.10
2018-12-10T01:34:58.366Z,4.10
2018-12-10T01:37:26.132Z,4.10
2018-12-10T01:39:53.938Z,4.10
2018-12-10T01:42:21.767Z,4.10
2018-12-10T01:44:49.566Z,4.00
2018-12-10T01:47:17.321Z,4.00
2018-12-10T01:49:45.068Z,4.00
2018-12-10T01:52:12.932Z,4.00
2018-12-10T01:54:40.802Z,4.00
2018-12-10T01:57:08.672Z,4.00
2018-12-10T01:59:36.293Z,4.00
2018-12-10T02:02:03.944Z,3.90
2018-12-10T02:04:32.174Z,3.90
2018-12-10T02:06:59.951Z,3.90
2018-12-10T02:09:27.702Z,3.80
2018-12-10T02:11:55.470Z,3.80
2018-12-10T02:14:23.335Z,3.70
2018-12-10T02:16:51.102Z,3.80
2018-12-10T02:19:18.866Z,3.60
2018-12-10T02:21:46.633Z,3.70
2018-12-10T02:24:14.314Z,3.70
2018-12-10T02:26:42.165Z,3.60
2018-12-10T02:29:14.360Z,3.70
2018-12-10T02:31:42.762Z,3.70
2018-12-10T02:34:10.482Z,3.70
2018-12-10T02:36:38.349Z,3.80
2018-12-10T02:39:06.109Z,3.80
2018-12-10T02:41:34.289Z,3.80
2018-12-10T02:44:02.038Z,3.80
2018-12-10T02:46:29.930Z,3.80
2018-12-10T02:48:58.510Z,3.80
2018-12-10T02:51:26.381Z,3.90
2018-12-10T02:53:54.247Z,3.80
2018-12-10T02:56:22.045Z,3.80
2018-12-10T02:58:49.932Z,3.90
2018-12-10T03:01:18.262Z,4.00
2018-12-10T03:03:46.026Z,4.00
2018-12-10T03:06:13.808Z,4.10
2018-12-10T03:08:41.478Z,4.00
2018-12-10T03:11:09.222Z,4.10
2018-12-10T03:13:37.096Z,4.10
2018-12-10T03:16:04.724Z,4.10
2018-12-10T03:18:32.455Z,4.10
2018-12-10T03:21:00.163Z,4.20
2018-12-10T03:23:28.063Z,4.30
2018-12-10T03:25:55.827Z,4.40
2018-12-10T03:28:23.700Z,4.40
2018-12-10T03:30:51.466Z,4.30
2018-12-10T03:33:19.440Z,4.40
2018-12-10T03:35:47.319Z,4.40
2018-12-10T03:38:15.839Z,4.40
2018-12-10T03:40:43.570Z,4.40
2018-12-10T03:43:11.368Z,4.40
2018-12-10T03:45:39.117Z,4.40
2018-12-10T03:48:06.921Z,4.40
2018-12-10T03:50:34.531Z,4.30
2018-12-10T03:53:02.751Z,4.30
2018-12-10T03:55:30.736Z,4.20
2018-12-10T03:57:58.532Z,4.10
2018-12-10T04:00:26.617Z,4.10
2018-12-10T04:02:54.818Z,4.20
2018-12-10T04:05:22.632Z,4.20
2018-12-10T04:07:50.445Z,4.20
2018-12-10T04:10:18.372Z,4.10
2018-12-10T04:12:46.006Z,4.10
2018-12-10T04:15:13.732Z,4.00
2018-12-10T04:17:41.647Z,4.00
2018-12-10T04:20:09.463Z,4.00
2018-12-10T04:22:37.390Z,4.00
2018-12-10T04:25:05.271Z,4.00
2018-12-10T04:27:34.038Z,4.00
2018-12-10T04:30:01.921Z,3.90
2018-12-10T04:32:29.631Z,4.00
2018-12-10T04:34:57.432Z,3.80
2018-12-10T04:37:27.446Z,3.80
2018-12-10T04:39:55.197Z,3.80
2018-12-10T04:42:23.037Z,3.70
2018-12-10T04:44:51.459Z,3.60
2018-12-10T04:47:19.395Z,3.50
2018-12-10T04:49:47.330Z,3.40
2018-12-10T04:52:15.061Z,3.30
2018-12-10T04:54:43.016Z,3.20
2018-12-10T04:57:10.745Z,3.10
2018-12-10T04:59:38.551Z,3.20
2018-12-10T05:02:07.909Z,3.00
2018-12-10T05:04:36.167Z,3.00
2018-12-10T05:07:03.976Z,3.00
2018-12-10T05:09:31.623Z,3.10
2018-12-10T05:11:59.555Z,3.10
2018-12-10T05:14:27.368Z,3.10
2018-12-10T05:16:55.303Z,3.10
2018-12-10T05:19:23.035Z,3.20
2018-12-10T05:21:50.768Z,3.20
2018-12-10T05:24:18.497Z,3.20
2018-12-10T05:26:46.332Z,3.20
2018-12-10T05:29:14.062Z,3.20
2018-12-10T05:31:41.896Z,3.20
2018-12-10T05:34:11.281Z,3.10
2018-12-10T05:36:39.218Z,3.00
2018-12-10T05:39:07.137Z,2.90
2018-12-10T05:41:34.755Z,2.90
2018-12-10T05:44:02.388Z,2.90
2018-12-10T05:46:30.319Z,2.90
2018-12-10T05:48:57.986Z,2.90
2018-12-10T05:51:25.648Z,3.00
2018-12-10T05:53:53.502Z,3.00
2018-12-10T05:56:21.140Z,3.00
2018-12-10T05:58:50.392Z,3.00
2018-12-10T06:01:18.118Z,2.90
2018-12-10T06:03:45.948Z,3.00
2018-12-10T06:06:13.600Z,3.00
2018-12-10T06:08:41.501Z,3.00
2018-12-10T06:11:09.331Z,3.10
2018-12-10T06:13:36.948Z,3.10
2018-12-10T06:16:04.807Z,3.10
2018-12-10T06:18:33.126Z,3.10
2018-12-10T06:21:01.096Z,3.20
2018-12-10T06:23:28.887Z,3.20
2018-12-10T06:25:56.941Z,3.10
2018-12-10T06:28:24.757Z,3.20
2018-12-10T06:30:52.406Z,3.20
2018-12-10T06:33:20.012Z,3.10
2018-12-10T06:35:47.940Z,3.00
2018-12-10T06:38:15.663Z,3.20
2018-12-10T06:40:43.697Z,3.00
2018-12-10T06:43:11.747Z,2.90
2018-12-10T06:45:39.557Z,3.00
2018-12-10T06:48:07.827Z,3.00
2018-12-10T06:50:35.445Z,3.20
2018-12-10T06:53:03.249Z,3.20
2018-12-10T06:55:34.416Z,3.20
2018-12-10T06:58:05.061Z,3.20
2018-12-10T07:00:32.772Z,3.20
2018-12-10T07:03:00.526Z,3.30
2018-12-10T07:05:28.338Z,3.20
2018-12-10T07:07:57.517Z,3.30
2018-12-10T07:10:26.959Z,3.40
2018-12-10T07:12:54.683Z,3.40
2018-12-10T07:15:22.450Z,3.30
2018-12-10T07:17:50.150Z,3.30
2018-12-10T07:20:17.898Z,3.20
2018-12-10T07:22:45.951Z,3.20
2018-12-10T07:25:13.742Z,3.20
2018-12-10T07:27:41.448Z,3.20
2018-12-10T07:30:09.462Z,3.20
2018-12-10T07:32:37.248Z,3.20
2018-12-10T07:35:05.212Z,3.20
2018-12-10T07:37:32.809Z,3.20
2018-12-10T07:40:00.478Z,3.30
2018-12-10T07:42:28.316Z,3.20
2018-12-10T07:44:56.219Z,3.30
2018-12-10T07:47:23.883Z,3.30
2018-12-10T07:49:51.688Z,3.40
2018-12-10T07:52:19.408Z,3.50
2018-12-10T07:54:47.146Z,3.60
2018-12-10T07:57:14.946Z,3.60
2018-12-10T07:59:42.672Z,3.60
2018-12-10T08:02:10.402Z,3.70
2018-12-10T08:04:38.142Z,3.70
2018-12-10T08:07:05.951Z,3.80
2018-12-10T08:09:33.876Z,3.80
2018-12-10T08:12:01.748Z,3.80
2018-12-10T08:14:29.439Z,3.80
2018-12-10T08:16:57.253Z,3.80
2018-12-10T08:19:25.320Z,3.70
2018-12-10T08:21:53.219Z,3.80
2018-12-10T08:24:21.761Z,3.70
2018-12-10T08:26:49.829Z,3.70
2018-12-10T08:29:18.342Z,3.70
2018-12-10T08:31:47.091Z,3.80
2018-12-10T08:34:14.815Z,3.70
2018-12-10T08:36:42.462Z,3.80
2018-12-10T08:39:10.273Z,3.90
2018-12-10T08:41:38.745Z,4.00
2018-12-10T08:44:06.393Z,4.00
2018-12-10T08:46:34.333Z,3.90
2018-12-10T08:49:01.978Z,3.80
2018-12-10T08:51:30.252Z,3.90
2018-12-10T08:53:58.105Z,3.80
2018-12-10T08:56:26.121Z,3.90
2018-12-10T08:58:54.050Z,3.90
2018-12-10T09:01:21.980Z,3.80
2018-12-10T09:03:50.441Z,3.80
2018-12-10T09:06:18.266Z,3.80
2018-12-10T09:08:47.068Z,3.80
2018-12-10T09:11:14.956Z,3.90
2018-12-10T09:13:42.789Z,4.00
2018-12-10T09:16:10.446Z,4.00
2018-12-10T09:18:38.189Z,4.00
2018-12-10T09:21:06.486Z,4.00
2018-12-10T09:23:34.102Z,4.00
2018-12-10T09:26:01.891Z,4.00
2018-12-10T09:28:29.761Z,4.00
2018-12-10T09:30:57.667Z,4.00
2018-12-10T09:33:25.394Z,4.00
2018-12-10T09:35:53.262Z,4.00
2018-12-10T09:38:21.542Z,4.00
2018-12-10T09:40:49.411Z,4.00
2018-12-10T09:43:17.203Z,4.10
2018-12-10T09:45:45.148Z,4.10
2018-12-10T09:48:13.015Z,4.20
2018-12-10T09:50:40.882Z,4.30
2018-12-10T09:53:09.542Z,4.50
2018-12-10T09:55:37.337Z,4.50
2018-12-10T09:58:05.205Z,4.70
2018-12-10T10:00:32.895Z,5.00
2018-12-10T10:03:01.605Z,5.30
2018-12-10T10:05:29.526Z,5.00
2018-12-10T10:07:57.427Z,4.70
2018-12-10T10:10:25.302Z,4.50
2018-12-10T10:12:53.033Z,4.40
2018-12-10T10:15:20.898Z,4.10
2018-12-10T10:17:48.695Z,3.80
2018-12-10T10:20:17.862Z,3.60
2018-12-10T10:22:45.731Z,3.50
2018-12-10T10:25:13.599Z,3.00
2018-12-10T10:27:41.467Z,2.90
2018-12-10T10:30:09.335Z,2.90
2018-12-10T10:32:37.262Z,2.80
2018-12-10T10:35:05.173Z,2.80
2018-12-10T10:37:33.046Z,2.70
2018-12-10T10:40:00.854Z,2.60
2018-12-10T10:42:28.777Z,2.50
2018-12-10T10:44:56.443Z,2.50
2018-12-10T10:47:24.311Z,2.40
2018-12-10T10:49:52.106Z,2.20
2018-12-10T10:52:19.903Z,2.10
2018-12-10T10:54:48.327Z,2.10
2018-12-10T10:57:16.195Z,2.10
2018-12-10T10:59:44.063Z,2.20
2018-12-10T11:05:16.682Z,2.20
2018-12-10T11:07:44.431Z,2.20
2018-12-10T11:10:12.909Z,2.20
2018-12-10T11:12:40.674Z,2.30
2018-12-10T11:15:08.469Z,2.80
2018-12-10T11:17:36.221Z,3.30
2018-12-10T11:20:05.717Z,3.50
2018-12-10T11:22:33.341Z,3.70
2018-12-10T11:25:01.258Z,4.00
2018-12-10T11:27:29.094Z,4.10
2018-12-10T11:29:57.393Z,4.20
2018-12-10T11:32:25.245Z,4.20
2018-12-10T11:34:53.146Z,4.60
2018-12-10T11:37:20.940Z,4.70
2018-12-10T11:39:48.670Z,4.80
2018-12-10T11:42:16.816Z,4.90
2018-12-10T11:44:44.749Z,4.90
2018-12-10T11:47:13.143Z,4.80
2018-12-10T11:49:41.230Z,5.00
2018-12-10T11:52:09.171Z,5.00
2018-12-10T11:54:37.104Z,5.10
2018-12-10T11:57:05.647Z,4.90
2018-12-10T11:59:33.403Z,5.20
2018-12-10T12:02:01.043Z,5.40
2018-12-10T12:04:28.845Z,5.50
2018-12-10T12:06:56.574Z,5.10
2018-12-10T12:09:24.921Z,4.80
2018-12-10T12:11:52.762Z,4.70
2018-12-10T12:14:20.505Z,4.70
2018-12-10T12:16:48.142Z,4.60
2018-12-10T12:19:16.053Z,4.60
2018-12-10T12:21:44.089Z,4.70
2018-12-10T12:24:11.922Z,4.70
2018-12-10T12:26:39.830Z,4.70
2018-12-10T12:29:08.615Z,4.70
2018-12-10T12:31:36.553Z,4.80
2018-12-10T12:34:04.201Z,5.20
2018-12-10T12:36:32.063Z,5.30
2018-12-10T12:38:59.951Z,5.20
2018-12-10T12:41:27.995Z,5.10
2018-12-10T12:43:55.922Z,4.90
2018-12-10T12:46:23.858Z,4.80
2018-12-10T12:48:51.588Z,4.80
2018-12-10T12:51:19.422Z,4.60
2018-12-10T12:53:47.289Z,4.70
2018-12-10T12:56:15.090Z,4.70
2018-12-10T12:58:42.821Z,4.60
2018-12-10T13:01:11.166Z,4.70
2018-12-10T13:03:39.100Z,5.00
2018-12-10T13:06:07.208Z,5.20
2018-12-10T13:08:35.241Z,5.10
2018-12-10T13:11:03.311Z,5.10
2018-12-10T13:13:31.248Z,5.20
2018-12-10T13:15:58.979Z,5.20
2018-12-10T13:18:26.916Z,5.30
2018-12-10T13:20:55.064Z,5.50
2018-12-10T13:23:22.893Z,5.70
2018-12-10T13:25:51.033Z,5.50
2018-12-10T13:28:18.868Z,5.50
2018-12-10T13:30:46.702Z,5.50
2018-12-10T13:33:14.537Z,5.30
2018-12-10T13:35:42.365Z,5.40
2018-12-10T13:38:12.548Z,5.30
2018-12-10T13:40:40.165Z,5.30
2018-12-10T13:43:07.993Z,5.30
2018-12-10T13:45:36.644Z,5.00
2018-12-10T13:48:05.090Z,4.80
2018-12-10T13:50:32.812Z,4.70
2018-12-10T13:53:00.759Z,4.60
2018-12-10T13:55:28.985Z,4.60
2018-12-10T13:57:56.937Z,4.50
2018-12-10T14:00:25.421Z,4.50
2018-12-10T14:02:53.320Z,4.60
2018-12-10T14:05:21.253Z,4.50
2018-12-10T14:07:49.193Z,4.60
2018-12-10T14:10:17.030Z,4.70
2018-12-10T14:12:45.063Z,4.50
2018-12-10T14:15:13.002Z,4.40
2018-12-10T14:17:40.936Z,4.30
2018-12-10T14:20:08.870Z,4.30
2018-12-10T14:22:36.605Z,4.20
2018-12-10T14:25:05.262Z,4.20
2018-12-10T14:27:32.926Z,4.10
2018-12-10T14:30:00.801Z,4.10
2018-12-10T14:32:28.737Z,4.10
2018-12-10T14:34:57.082Z,4.10
2018-12-10T14:37:24.917Z,4.10
2018-12-10T14:39:52.671Z,4.10
2018-12-10T14:42:21.342Z,4.10
2018-12-10T14:44:49.127Z,4.10
2018-12-10T14:47:16.860Z,4.10
2018-12-10T14:49:45.189Z,4.10
2018-12-10T14:52:13.347Z,4.00
2018-12-10T14:54:41.692Z,4.00
2018-12-10T14:57:09.339Z,3.90
2018-12-10T14:59:37.341Z,3.90
2018-12-10T15:02:05.058Z,3.80
2018-12-10T15:04:32.742Z,3.70
2018-12-10T15:07:00.453Z,3.70
2018-12-10T15:09:28.166Z,3.70
2018-12-10T15:11:56.511Z,3.60
2018-12-10T15:14:25.293Z,3.50
2018-12-10T15:16:53.202Z,3.40
2018-12-10T15:19:20.933Z,3.50
2018-12-10T15:21:48.583Z,3.50
2018-12-10T15:24:16.906Z,3.50
2018-12-10T15:26:44.739Z,3.40
2018-12-10T15:29:12.671Z,3.40
2018-12-10T15:31:40.608Z,3.30
2018-12-10T15:34:09.635Z,3.30
2018-12-10T15:36:37.602Z,3.20
2018-12-10T15:39:06.932Z,3.20
2018-12-10T15:41:35.413Z,3.10
2018-12-10T15:44:04.167Z,3.20
2018-12-10T15:46:32.043Z,3.20
2018-12-10T15:49:00.549Z,3.30
2018-12-10T15:51:28.380Z,3.40
2018-12-10T15:53:56.913Z,3.60
2018-12-10T15:56:25.070Z,3.60
2018-12-10T15:58:53.006Z,3.60
2018-12-10T16:01:21.467Z,3.70
2018-12-10T16:03:49.605Z,3.70
2018-12-10T16:06:17.530Z,3.70
2018-12-10T16:08:45.566Z,3.80
2018-12-10T16:11:13.509Z,3.70
2018-12-10T16:13:41.438Z,3.70
2018-12-10T16:16:09.179Z,3.70
2018-12-10T16:18:37.111Z,3.70
2018-12-10T16:21:05.142Z,3.70
2018-12-10T16:23:32.876Z,3.70
2018-12-10T16:26:00.902Z,3.80
2018-12-10T16:28:28.930Z,3.70
2018-12-10T16:30:56.859Z,3.80
2018-12-10T16:33:24.791Z,3.80
2018-12-10T16:35:53.037Z,3.80
2018-12-10T16:38:20.963Z,3.90
2018-12-10T16:40:48.896Z,3.80
2018-12-10T16:43:18.244Z,3.90
2018-12-10T16:45:46.124Z,3.80
2018-12-10T16:48:13.935Z,3.90
2018-12-10T16:50:41.870Z,3.90
2018-12-10T16:53:09.842Z,4.00
2018-12-10T16:55:37.737Z,3.90
2018-12-10T16:58:07.204Z,3.80
2018-12-10T17:00:35.014Z,3.60
2018-12-10T17:03:03.261Z,3.20
2018-12-10T17:05:31.634Z,3.00
2018-12-10T17:07:59.565Z,3.10
2018-12-10T17:10:27.413Z,3.00
2018-12-10T17:12:55.324Z,2.90
2018-12-10T17:15:23.251Z,2.30
2018-12-10T17:17:51.493Z,1.90
2018-12-10T17:20:19.422Z,1.50
2018-12-10T17:22:47.348Z,1.20
2018-12-10T17:25:15.276Z,1.00
2018-12-10T17:27:43.207Z,0.80
2018-12-10T17:30:11.242Z,0.60
2018-12-10T17:32:39.166Z,0.60
2018-12-10T17:35:07.094Z,0.50
2018-12-10T17:37:34.794Z,0.50
2018-12-10T17:40:02.917Z,0.50
2018-12-10T17:42:30.827Z,0.50
2018-12-10T17:44:59.758Z,0.50
2018-12-10T17:47:27.656Z,0.50
2018-12-10T17:49:56.108Z,0.50
2018-12-10T17:52:24.076Z,0.50
2018-12-10T17:54:51.784Z,0.50
2018-12-10T17:57:19.716Z,0.50
2018-12-10T17:59:47.775Z,0.50
2018-12-10T18:02:15.573Z,0.50
2018-12-10T18:04:43.449Z,0.60
2018-12-10T18:07:11.435Z,0.70
2018-12-10T18:09:39.160Z,0.80
2018-12-10T18:12:07.091Z,0.80
2018-12-10T18:14:34.771Z,0.80
2018-12-10T18:17:03.113Z,0.80
2018-12-10T18:19:31.074Z,0.80
2018-12-10T18:21:59.012Z,0.80
2018-12-10T18:24:26.930Z,0.80
2018-12-10T18:26:54.776Z,0.80
2018-12-10T18:29:22.751Z,0.70
2018-12-10T18:31:50.613Z,0.70
2018-12-10T18:34:18.546Z,0.70
2018-12-10T18:36:46.624Z,0.60
2018-12-10T18:39:14.984Z,0.60
2018-12-10T18:41:42.930Z,0.60
2018-12-10T18:44:10.751Z,0.70
2018-12-10T18:46:38.683Z,0.80
2018-12-10T18:49:06.614Z,1.00
2018-12-10T18:51:34.440Z,1.10
2018-12-10T18:54:05.114Z,1.10
2018-12-10T18:56:33.221Z,1.10
2018-12-10T18:59:01.196Z,1.20
2018-12-10T19:01:29.280Z,1.20
2018-12-10T19:03:57.254Z,1.30
2018-12-10T19:06:25.465Z,1.30
2018-12-10T19:08:54.105Z,1.40
2018-12-10T19:11:22.274Z,1.40
2018-12-10T19:13:50.375Z,1.30
2018-12-10T19:16:18.235Z,1.20
2018-12-10T19:18:46.321Z,1.20
2018-12-10T19:21:14.294Z,1.20
2018-12-10T19:23:42.843Z,1.20
2018-12-10T19:26:11.619Z,1.20
2018-12-10T19:28:39.722Z,1.20
2018-12-10T19:31:07.815Z,1.20
2018-12-10T19:33:35.581Z,1.20
2018-12-10T19:36:04.076Z,1.20
2018-12-10T19:38:31.907Z,1.20
2018-12-10T19:41:00.068Z,1.20
2018-12-10T19:43:28.237Z,1.20
2018-12-10T19:45:56.146Z,1.10
2018-12-10T19:48:24.013Z,1.20
2018-12-10T19:50:51.909Z,1.20
2018-12-10T19:53:19.963Z,1.30
2018-12-10T19:55:47.935Z,1.30
2018-12-10T19:58:15.791Z,1.50
2018-12-10T20:00:45.052Z,1.40
2018-12-10T20:03:12.967Z,1.40
2018-12-10T20:05:46.363Z,1.50
2018-12-10T20:08:14.433Z,1.40
2018-12-10T20:10:42.302Z,1.40
2018-12-10T20:13:10.269Z,1.40
2018-12-10T20:15:38.029Z,1.40
2018-12-10T20:18:05.937Z,1.30
2018-12-10T20:20:33.665Z,1.40
2018-12-10T20:23:01.729Z,1.50
2018-12-10T20:25:29.819Z,1.30
2018-12-10T20:27:57.894Z,1.30
2018-12-10T20:30:25.680Z,1.30
2018-12-10T20:32:53.527Z,1.30
2018-12-10T20:35:21.396Z,1.30
2018-12-10T20:37:49.289Z,1.30
2018-12-10T20:40:17.231Z,1.40
2018-12-10T20:42:45.714Z,1.40
2018-12-10T20:45:13.642Z,1.50
2018-12-10T20:47:41.655Z,1.50
2018-12-10T20:50:09.522Z,1.60
2018-12-10T20:52:37.235Z,1.60
2018-12-10T20:55:05.609Z,1.60
2018-12-10T20:57:33.447Z,1.60
2018-12-10T21:00:01.933Z,1.70
2018-12-10T21:02:29.608Z,1.70
2018-12-10T21:04:57.551Z,1.70
2018-12-10T21:07:25.321Z,1.60
2018-12-10T21:09:53.289Z,1.70
2018-12-10T21:12:21.118Z,1.70
2018-12-10T21:14:49.092Z,1.70
2018-12-10T21:17:17.390Z,1.70
2018-12-10T21:19:45.070Z,1.70
2018-12-10T21:22:12.926Z,1.70
2018-12-10T21:24:40.736Z,1.60
2018-12-10T21:27:09.109Z,1.80
2018-12-10T21:29:36.951Z,1.70
2018-12-10T21:32:04.601Z,1.70
2018-12-10T21:34:32.378Z,1.60
2018-12-10T21:37:00.119Z,1.70
2018-12-10T21:39:28.011Z,1.70
2018-12-10T21:41:55.805Z,1.70
2018-12-10T21:44:23.541Z,1.70
2018-12-10T21:46:51.412Z,1.70
2018-12-10T21:49:19.205Z,1.70
2018-12-10T21:51:46.942Z,1.70
2018-12-10T21:54:14.810Z,1.80
2018-12-10T21:56:42.684Z,1.70
2018-12-10T21:59:11.369Z,1.80
2018-12-10T22:01:39.234Z,1.90
2018-12-10T22:04:07.102Z,2.00
2018-12-10T22:06:34.782Z,1.90
2018-12-10T22:09:02.838Z,2.00
2018-12-10T22:11:30.620Z,2.00
2018-12-10T22:13:58.495Z,2.00
2018-12-10T22:16:26.443Z,2.00
2018-12-10T22:18:54.520Z,2.00
2018-12-10T22:21:22.383Z,2.10
2018-12-10T22:23:50.259Z,2.00
2018-12-10T22:26:18.020Z,2.00
2018-12-10T22:28:45.888Z,2.10
2018-12-10T22:31:13.754Z,2.10
2018-12-10T22:33:41.530Z,2.10
2018-12-10T22:36:09.597Z,2.10
2018-12-10T22:38:37.393Z,2.10
2018-12-10T22:41:05.883Z,2.10
2018-12-10T22:43:33.572Z,2.10
2018-12-10T22:46:01.303Z,2.10
2018-12-10T22:48:29.856Z,2.10
2018-12-10T22:50:57.668Z,2.10
2018-12-10T22:53:26.105Z,2.00
2018-12-10T22:55:53.928Z,2.10
2018-12-10T22:58:21.949Z,2.10
2018-12-10T23:00:50.994Z,2.10
2018-12-10T23:03:19.087Z,2.00
2018-12-10T23:05:47.188Z,2.10
2018-12-10T23:08:15.160Z,2.20
2018-12-10T23:10:43.025Z,2.20
2018-12-10T23:13:11.088Z,2.20
2018-12-10T23:15:38.967Z,2.10
2018-12-10T23:18:06.837Z,2.20
2018-12-10T23:20:34.704Z,2.20
2018-12-10T23:23:02.399Z,2.30
2018-12-10T23:25:30.134Z,2.20
2018-12-10T23:27:58.607Z,2.20
2018-12-10T23:30:26.481Z,2.30
2018-12-10T23:32:54.273Z,2.20
2018-12-10T23:35:22.042Z,2.30
2018-12-10T23:37:50.031Z,2.20
2018-12-10T23:40:17.786Z,2.20
2018-12-10T23:42:51.253Z,2.20
2018-12-10T23:45:18.914Z,2.20
2018-12-10T23:47:46.576Z,2.30
2018-12-10T23:50:14.651Z,2.30
2018-12-10T23:52:42.451Z,2.30
2018-12-10T23:55:10.592Z,2.30
2018-12-10T23:57:38.463Z,2.30
